createdAt,value
2018-11-29T00:00:22.676Z,5.30
2018-11-29T00:02:51.668Z,5.30
2018-11-29T00:05:20.201Z,5.30
2018-11-29T00:07:48.739Z,5.30
2018-11-29T00:10:17.304Z,5.20
2018-11-29T00:12:45.839Z,5.20
2018-11-29T00:15:15.374Z,5.20
2018-11-29T00:17:44.016Z,5.20
2018-11-29T00:20:17.244Z,5.20
2018-11-29T00:22:46.543Z,5.20
2018-11-29T00:25:16.019Z,5.20
2018-11-29T00:27:44.848Z,5.10
2018-11-29T00:30:15.133Z,5.10
2018-11-29T00:32:43.821Z,5.10
2018-11-29T00:35:13.140Z,5.10
2018-11-29T00:37:41.735Z,5.10
2018-11-29T00:40:18.949Z,5.10
2018-11-29T00:42:47.660Z,5.10
2018-11-29T00:45:18.112Z,5.10
2018-11-29T00:47:47.433Z,5.10
2018-11-29T00:50:16.719Z,5.10
2018-11-29T00:52:45.981Z,5.10
2018-11-29T00:55:16.280Z,5.10
2018-11-29T00:57:44.942Z,5.10
2018-11-29T01:00:17.650Z,5.10
2018-11-29T01:02:46.207Z,5.10
2018-11-29T01:05:14.687Z,5.10
2018-11-29T01:07:43.231Z,5.10
2018-11-29T01:10:15.591Z,5.10
2018-11-29T01:12:44.574Z,5.10
2018-11-29T01:15:16.081Z,5.10
2018-11-29T01:17:45.514Z,5.00
2018-11-29T01:20:15.063Z,5.00
2018-11-29T01:22:43.565Z,5.00
2018-11-29T01:25:13.159Z,4.90
2018-11-29T01:27:42.444Z,4.80
2018-11-29T01:30:12.057Z,4.80
2018-11-29T01:32:40.569Z,4.70
2018-11-29T01:35:10.284Z,4.70
2018-11-29T01:37:38.962Z,4.80
2018-11-29T01:40:14.359Z,4.80
2018-11-29T01:42:43.540Z,4.80
2018-11-29T01:45:12.083Z,4.80
2018-11-29T01:47:40.605Z,4.80
2018-11-29T01:50:09.122Z,4.80
2018-11-29T01:52:37.591Z,4.80
2018-11-29T01:55:07.676Z,4.80
2018-11-29T01:57:36.384Z,4.80
2018-11-29T02:00:06.282Z,4.80
2018-11-29T02:02:34.876Z,4.80
2018-11-29T02:05:03.435Z,4.80
2018-11-29T02:07:31.884Z,4.70
2018-11-29T02:10:05.676Z,4.80
2018-11-29T02:12:34.125Z,4.80
2018-11-29T02:15:02.681Z,4.80
2018-11-29T02:17:31.219Z,4.80
2018-11-29T02:19:59.809Z,4.70
2018-11-29T02:22:28.339Z,4.70
2018-11-29T02:24:56.881Z,4.70
2018-11-29T02:27:25.379Z,4.70
2018-11-29T02:29:53.938Z,4.70
2018-11-29T02:32:22.427Z,4.70
2018-11-29T02:34:50.885Z,4.60
2018-11-29T02:37:19.597Z,4.60
2018-11-29T02:39:48.302Z,4.70
2018-11-29T02:42:17.002Z,4.60
2018-11-29T02:44:45.502Z,4.60
2018-11-29T02:47:14.029Z,4.60
2018-11-29T02:49:42.530Z,4.60
2018-11-29T02:52:11.146Z,4.60
2018-11-29T02:54:39.902Z,4.60
2018-11-29T02:57:08.358Z,4.60
2018-11-29T02:59:36.811Z,4.60
2018-11-29T03:02:05.736Z,4.60
2018-11-29T03:04:34.200Z,4.60
2018-11-29T03:07:02.877Z,4.60
2018-11-29T03:09:31.529Z,4.50
2018-11-29T03:12:00.069Z,4.60
2018-11-29T03:14:28.551Z,4.50
2018-11-29T03:16:57.090Z,4.50
2018-11-29T03:19:25.702Z,4.50
2018-11-29T03:21:54.290Z,4.50
2018-11-29T03:24:22.784Z,4.60
2018-11-29T03:26:51.255Z,4.60
2018-11-29T03:29:19.709Z,4.60
2018-11-29T03:31:48.318Z,4.50
2018-11-29T03:34:16.797Z,4.50
2018-11-29T03:36:45.245Z,4.50
2018-11-29T03:39:13.763Z,4.60
2018-11-29T03:41:42.253Z,4.60
2018-11-29T03:44:10.683Z,4.60
2018-11-29T03:46:39.183Z,4.60
2018-11-29T03:49:07.662Z,4.60
2018-11-29T03:51:36.141Z,4.60
2018-11-29T03:54:04.815Z,4.60
2018-11-29T03:56:33.261Z,4.60
2018-11-29T03:59:01.727Z,4.60
2018-11-29T04:01:30.493Z,4.50
2018-11-29T04:03:58.973Z,4.50
2018-11-29T04:06:27.444Z,4.50
2018-11-29T04:08:56.293Z,4.50
2018-11-29T04:11:24.871Z,4.40
2018-11-29T04:13:53.451Z,4.50
2018-11-29T04:16:21.974Z,4.50
2018-11-29T04:18:50.547Z,4.50
2018-11-29T04:21:19.054Z,4.50
2018-11-29T04:23:47.831Z,4.60
2018-11-29T04:26:16.494Z,4.60
2018-11-29T04:28:44.972Z,4.60
2018-11-29T04:31:13.490Z,4.60
2018-11-29T04:33:42.075Z,4.60
2018-11-29T04:36:10.516Z,4.60
2018-11-29T04:38:39.323Z,4.60
2018-11-29T04:41:07.821Z,4.50
2018-11-29T04:43:36.311Z,4.50
2018-11-29T04:47:14.175Z,4.50
2018-11-29T04:49:43.379Z,4.40
2018-11-29T04:52:12.203Z,4.30
2018-11-29T04:54:40.759Z,4.30
2018-11-29T04:57:09.235Z,4.30
2018-11-29T04:59:37.774Z,4.30
2018-11-29T05:02:06.827Z,4.30
2018-11-29T05:04:35.336Z,4.30
2018-11-29T05:07:03.859Z,4.20
2018-11-29T05:09:32.397Z,4.20
2018-11-29T05:12:01.135Z,4.20
2018-11-29T05:14:29.581Z,4.10
2018-11-29T05:16:58.072Z,4.00
2018-11-29T05:19:26.827Z,4.00
2018-11-29T05:21:55.356Z,3.90
2018-11-29T05:24:23.972Z,3.80
2018-11-29T05:26:52.535Z,3.90
2018-11-29T05:29:21.019Z,3.90
2018-11-29T05:31:49.670Z,3.90
2018-11-29T05:34:18.275Z,3.90
2018-11-29T05:36:46.803Z,3.80
2018-11-29T05:39:15.428Z,3.80
2018-11-29T05:41:43.857Z,3.70
2018-11-29T05:44:12.279Z,3.70
2018-11-29T05:46:40.774Z,3.70
2018-11-29T05:49:09.326Z,3.70
2018-11-29T05:51:37.912Z,3.80
2018-11-29T05:54:06.467Z,3.80
2018-11-29T05:56:34.966Z,3.80
2018-11-29T05:59:03.492Z,3.80
2018-11-29T06:01:41.661Z,3.70
2018-11-29T06:04:10.234Z,3.60
2018-11-29T06:06:38.849Z,3.40
2018-11-29T06:09:10.030Z,3.30
2018-11-29T06:11:39.365Z,3.30
2018-11-29T06:14:08.578Z,3.20
2018-11-29T06:16:37.837Z,3.20
2018-11-29T06:19:07.688Z,3.30
2018-11-29T06:21:36.170Z,3.30
2018-11-29T06:24:05.027Z,3.30
2018-11-29T06:26:33.504Z,3.30
2018-11-29T06:29:02.004Z,3.30
2018-11-29T06:31:30.776Z,3.30
2018-11-29T06:33:59.234Z,3.30
2018-11-29T06:36:27.819Z,3.30
2018-11-29T06:38:56.314Z,3.30
2018-11-29T06:41:24.774Z,3.40
2018-11-29T06:43:53.260Z,3.40
2018-11-29T06:46:21.851Z,3.40
2018-11-29T06:48:50.288Z,3.40
2018-11-29T06:51:18.903Z,3.50
2018-11-29T06:53:52.806Z,3.50
2018-11-29T06:56:21.534Z,3.50
2018-11-29T06:58:50.020Z,3.50
2018-11-29T07:01:18.526Z,3.50
2018-11-29T07:03:47.052Z,3.50
2018-11-29T07:06:15.542Z,3.60
2018-11-29T07:08:44.095Z,3.60
2018-11-29T07:11:12.609Z,3.60
2018-11-29T07:13:41.238Z,3.60
2018-11-29T07:16:09.855Z,3.60
2018-11-29T07:18:38.408Z,3.60
2018-11-29T07:21:18.129Z,3.60
2018-11-29T07:23:46.736Z,3.70
2018-11-29T07:26:15.245Z,3.70
2018-11-29T07:28:43.981Z,3.70
2018-11-29T07:31:12.491Z,3.70
2018-11-29T07:33:40.999Z,3.70
2018-11-29T07:36:09.541Z,3.70
2018-11-29T07:38:38.035Z,3.70
2018-11-29T07:41:06.719Z,3.80
2018-11-29T07:43:35.414Z,3.80
2018-11-29T07:46:04.143Z,3.80
2018-11-29T07:48:32.626Z,3.90
2018-11-29T07:51:01.131Z,3.90
2018-11-29T07:53:29.756Z,3.90
2018-11-29T07:55:58.415Z,3.90
2018-11-29T07:58:27.070Z,3.90
2018-11-29T08:00:55.893Z,4.00
2018-11-29T08:03:24.399Z,4.10
2018-11-29T08:05:52.983Z,4.00
2018-11-29T08:08:21.469Z,4.10
2018-11-29T08:10:50.042Z,4.20
2018-11-29T08:13:18.698Z,4.20
2018-11-29T08:15:47.151Z,4.20
2018-11-29T08:18:15.644Z,4.30
2018-11-29T08:20:44.169Z,4.30
2018-11-29T08:23:12.849Z,4.30
2018-11-29T08:25:41.435Z,4.30
2018-11-29T08:28:09.954Z,4.30
2018-11-29T08:30:38.436Z,4.40
2018-11-29T08:33:06.936Z,4.30
2018-11-29T08:35:35.642Z,4.30
2018-11-29T08:38:04.119Z,4.30
2018-11-29T08:40:32.674Z,4.30
2018-11-29T08:43:01.175Z,4.30
2018-11-29T08:45:29.650Z,4.30
2018-11-29T08:47:58.126Z,4.30
2018-11-29T08:50:26.724Z,4.30
2018-11-29T08:52:55.207Z,4.20
2018-11-29T08:55:23.719Z,4.20
2018-11-29T08:57:52.267Z,4.30
2018-11-29T09:00:21.670Z,4.40
2018-11-29T09:02:50.260Z,4.40
2018-11-29T09:05:18.817Z,4.50
2018-11-29T09:07:48.177Z,4.50
2018-11-29T09:10:18.700Z,4.60
2018-11-29T09:12:47.278Z,4.60
2018-11-29T09:15:16.463Z,4.60
2018-11-29T09:17:45.013Z,4.60
2018-11-29T09:20:16.439Z,4.60
2018-11-29T09:22:44.944Z,4.60
2018-11-29T09:25:14.599Z,4.60
2018-11-29T09:27:43.424Z,4.60
2018-11-29T09:30:16.924Z,4.60
2018-11-29T09:32:46.198Z,4.60
2018-11-29T09:35:14.768Z,4.60
2018-11-29T09:37:43.366Z,4.70
2018-11-29T09:40:14.869Z,4.70
2018-11-29T09:42:43.492Z,4.80
2018-11-29T09:45:15.145Z,4.80
2018-11-29T09:47:44.603Z,4.80
2018-11-29T09:50:14.272Z,4.80
2018-11-29T09:52:42.851Z,4.80
2018-11-29T09:55:12.819Z,4.80
2018-11-29T09:57:41.389Z,4.80
2018-11-29T10:00:16.468Z,4.80
2018-11-29T10:02:47.805Z,4.90
2018-11-29T10:05:16.502Z,4.90
2018-11-29T10:07:45.159Z,4.90
2018-11-29T10:10:13.707Z,4.90
2018-11-29T10:12:42.279Z,4.80
2018-11-29T10:15:12.063Z,4.90
2018-11-29T10:17:40.516Z,5.00
2018-11-29T10:20:12.922Z,5.10
2018-11-29T10:22:42.201Z,5.10
2018-11-29T10:25:11.985Z,5.20
2018-11-29T10:27:41.161Z,5.20
2018-11-29T10:30:13.692Z,5.20
2018-11-29T10:32:42.300Z,5.20
2018-11-29T10:35:10.855Z,5.10
2018-11-29T10:37:39.351Z,5.00
2018-11-29T10:40:09.977Z,4.90
2018-11-29T10:42:38.573Z,4.80
2018-11-29T10:45:11.698Z,4.80
2018-11-29T10:47:40.634Z,4.90
2018-11-29T10:50:11.639Z,5.00
2018-11-29T10:52:40.103Z,5.00
2018-11-29T10:55:13.071Z,5.10
2018-11-29T10:57:41.741Z,5.10
2018-11-29T11:00:33.701Z,5.20
2018-11-29T11:03:07.659Z,5.20
2018-11-29T11:05:36.967Z,5.30
2018-11-29T11:08:08.540Z,5.40
2018-11-29T11:10:35.460Z,5.40
2018-11-29T11:13:04.081Z,5.40
2018-11-29T11:15:32.685Z,5.50
2018-11-29T11:18:01.243Z,5.50
2018-11-29T11:20:29.750Z,5.50
2018-11-29T11:22:58.219Z,5.60
2018-11-29T11:25:26.770Z,5.60
2018-11-29T11:27:55.307Z,5.60
2018-11-29T11:30:23.924Z,5.50
2018-11-29T11:32:52.900Z,5.40
2018-11-29T11:35:21.408Z,5.40
2018-11-29T11:37:50.030Z,5.50
2018-11-29T11:40:18.549Z,5.40
2018-11-29T11:42:47.384Z,5.40
2018-11-29T11:45:17.811Z,5.40
2018-11-29T11:47:46.479Z,5.30
2018-11-29T11:50:22.965Z,5.30
2018-11-29T11:52:52.044Z,5.40
2018-11-29T11:55:20.570Z,5.40
2018-11-29T11:57:49.303Z,5.50
2018-11-29T12:00:23.978Z,5.60
2018-11-29T12:03:00.981Z,5.60
2018-11-29T12:05:29.491Z,5.60
2018-11-29T12:07:57.997Z,5.60
2018-11-29T12:10:26.590Z,5.70
2018-11-29T12:12:55.360Z,5.70
2018-11-29T12:15:23.895Z,5.80
2018-11-29T12:17:52.473Z,5.80
2018-11-29T12:20:21.564Z,5.80
2018-11-29T12:22:50.053Z,5.90
2018-11-29T12:25:23.025Z,5.90
2018-11-29T12:27:53.068Z,6.00
2018-11-29T12:30:24.346Z,6.00
2018-11-29T12:32:54.866Z,6.00
2018-11-29T12:35:24.437Z,6.00
2018-11-29T12:37:53.731Z,6.00
2018-11-29T12:40:23.011Z,6.00
2018-11-29T12:42:52.104Z,6.00
2018-11-29T12:45:21.559Z,6.00
2018-11-29T12:47:50.828Z,6.00
2018-11-29T12:50:21.371Z,6.10
2018-11-29T12:52:50.594Z,6.10
2018-11-29T12:55:20.721Z,6.20
2018-11-29T12:58:04.550Z,6.20
2018-11-29T13:00:21.748Z,6.30
2018-11-29T13:02:56.060Z,6.40
2018-11-29T13:05:25.672Z,6.40
2018-11-29T13:07:55.641Z,6.40
2018-11-29T13:10:26.215Z,6.40
2018-11-29T13:12:56.196Z,6.40
2018-11-29T13:15:27.676Z,6.50
2018-11-29T13:17:57.855Z,6.40
2018-11-29T13:20:32.333Z,6.50
2018-11-29T13:22:57.762Z,6.50
2018-11-29T13:25:28.027Z,6.50
2018-11-29T13:27:57.618Z,6.50
2018-11-29T13:30:27.115Z,6.50
2018-11-29T13:32:58.585Z,6.50
2018-11-29T13:35:32.175Z,6.50
2018-11-29T13:38:05.153Z,6.60
2018-11-29T13:40:34.578Z,6.60
2018-11-29T13:43:03.979Z,6.60
2018-11-29T13:45:33.291Z,6.60
2018-11-29T13:48:03.526Z,6.60
2018-11-29T13:50:32.850Z,6.70
2018-11-29T13:53:02.084Z,6.70
2018-11-29T13:55:30.867Z,6.60
2018-11-29T13:57:59.788Z,6.60
2018-11-29T14:00:28.634Z,6.70
2018-11-29T14:02:58.725Z,6.70
2018-11-29T14:05:27.422Z,6.60
2018-11-29T14:07:56.048Z,6.70
2018-11-29T14:10:25.174Z,6.70
2018-11-29T14:12:54.790Z,6.70
2018-11-29T14:15:26.680Z,6.70
2018-11-29T14:17:56.012Z,6.70
2018-11-29T14:20:24.497Z,6.70
2018-11-29T14:22:52.990Z,6.70
2018-11-29T14:25:21.614Z,6.70
2018-11-29T14:27:51.543Z,6.70
2018-11-29T14:30:27.763Z,6.70
2018-11-29T14:32:58.333Z,6.60
2018-11-29T14:35:26.903Z,6.60
2018-11-29T14:37:55.425Z,6.60
2018-11-29T14:40:25.092Z,6.70
2018-11-29T14:42:53.613Z,6.70
2018-11-29T14:45:24.145Z,6.70
2018-11-29T14:47:52.631Z,6.70
2018-11-29T14:50:38.342Z,6.70
2018-11-29T14:53:08.004Z,6.70
2018-11-29T14:55:37.064Z,6.70
2018-11-29T14:58:06.458Z,6.80
2018-11-29T15:00:35.330Z,6.80
2018-11-29T15:03:09.212Z,6.70
2018-11-29T15:05:37.745Z,6.70
2018-11-29T15:08:08.572Z,6.70
2018-11-29T15:10:36.888Z,6.70
2018-11-29T15:13:06.297Z,6.70
2018-11-29T15:15:34.966Z,6.70
2018-11-29T15:18:03.476Z,6.70
2018-11-29T15:20:38.940Z,6.70
2018-11-29T15:23:08.314Z,6.70
2018-11-29T15:25:36.802Z,6.70
2018-11-29T15:28:05.423Z,6.70
2018-11-29T15:30:34.001Z,6.70
2018-11-29T15:33:02.608Z,6.70
2018-11-29T15:35:31.251Z,6.70
2018-11-29T15:37:59.759Z,6.70
2018-11-29T15:40:28.364Z,6.70
2018-11-29T15:42:56.914Z,6.60
2018-11-29T15:45:26.575Z,6.60
2018-11-29T15:47:55.223Z,6.60
2018-11-29T15:50:23.733Z,6.60
2018-11-29T15:52:52.284Z,6.50
2018-11-29T15:55:21.800Z,6.50
2018-11-29T15:57:51.364Z,6.50
2018-11-29T16:00:27.484Z,6.60
2018-11-29T16:02:59.368Z,6.60
2018-11-29T16:05:27.907Z,6.60
2018-11-29T16:07:56.487Z,6.60
2018-11-29T16:10:26.199Z,6.60
2018-11-29T16:12:54.687Z,6.60
2018-11-29T16:15:23.370Z,6.60
2018-11-29T16:17:52.789Z,6.50
2018-11-29T16:20:25.812Z,6.60
2018-11-29T16:22:54.434Z,6.50
2018-11-29T16:25:22.943Z,6.50
2018-11-29T16:27:51.450Z,6.50
2018-11-29T16:30:24.451Z,6.50
2018-11-29T16:32:53.427Z,6.50
2018-11-29T16:35:21.958Z,6.40
2018-11-29T16:37:50.431Z,6.40
2018-11-29T16:40:19.197Z,6.40
2018-11-29T16:42:47.770Z,6.30
2018-11-29T16:45:16.290Z,6.40
2018-11-29T16:47:44.880Z,6.30
2018-11-29T16:50:14.573Z,6.30
2018-11-29T16:52:43.236Z,6.30
2018-11-29T16:55:12.523Z,6.20
2018-11-29T16:57:42.658Z,6.20
2018-11-29T17:00:12.847Z,6.20
2018-11-29T17:02:41.431Z,6.20
2018-11-29T17:05:11.510Z,6.20
2018-11-29T17:07:40.044Z,6.10
2018-11-29T17:10:10.435Z,6.10
2018-11-29T17:12:38.907Z,6.10
2018-11-29T17:15:12.882Z,6.10
2018-11-29T17:17:41.406Z,6.10
2018-11-29T17:20:12.101Z,6.00
2018-11-29T17:22:40.679Z,6.00
2018-11-29T17:25:10.891Z,6.00
2018-11-29T17:27:39.692Z,5.90
2018-11-29T17:30:16.782Z,5.90
2018-11-29T17:32:45.396Z,5.90
2018-11-29T17:35:14.362Z,5.90
2018-11-29T17:37:43.024Z,5.80
2018-11-29T17:40:14.882Z,5.80
2018-11-29T17:42:43.667Z,5.80
2018-11-29T17:45:14.675Z,5.70
2018-11-29T17:47:43.995Z,5.70
2018-11-29T17:50:20.122Z,5.70
2018-11-29T17:52:49.291Z,5.70
2018-11-29T17:55:18.407Z,5.60
2018-11-29T17:57:47.686Z,5.60
2018-11-29T18:00:19.995Z,5.60
2018-11-29T18:02:49.203Z,5.60
2018-11-29T18:05:18.291Z,5.60
2018-11-29T18:07:47.651Z,5.60
2018-11-29T18:10:19.211Z,5.50
2018-11-29T18:12:50.200Z,5.50
2018-11-29T18:15:22.025Z,5.50
2018-11-29T18:17:51.240Z,5.50
2018-11-29T18:20:20.458Z,5.50
2018-11-29T18:22:49.861Z,5.40
2018-11-29T18:25:19.198Z,5.40
2018-11-29T18:27:49.693Z,5.40
2018-11-29T18:30:20.275Z,5.40
2018-11-29T18:32:49.643Z,5.40
2018-11-29T18:35:19.219Z,5.40
2018-11-29T18:37:48.707Z,5.40
2018-11-29T18:40:19.019Z,5.40
2018-11-29T18:42:50.090Z,5.40
2018-11-29T18:45:19.988Z,5.40
2018-11-29T18:47:50.347Z,5.40
2018-11-29T18:50:21.783Z,5.40
2018-11-29T18:52:51.201Z,5.40
2018-11-29T18:55:21.204Z,5.30
2018-11-29T18:57:50.467Z,5.30
2018-11-29T19:00:21.440Z,5.30
2018-11-29T19:02:50.740Z,5.30
2018-11-29T19:05:20.170Z,5.30
2018-11-29T19:07:49.463Z,5.20
2018-11-29T19:10:20.328Z,5.20
2018-11-29T19:12:55.575Z,5.20
2018-11-29T19:15:25.129Z,5.20
2018-11-29T19:17:54.957Z,5.10
2018-11-29T19:20:24.371Z,5.10
2018-11-29T19:22:53.920Z,5.10
2018-11-29T19:25:23.105Z,5.10
2018-11-29T19:27:52.895Z,5.10
2018-11-29T19:30:28.483Z,5.10
2018-11-29T19:33:06.965Z,5.10
2018-11-29T19:35:36.742Z,5.00
2018-11-29T19:38:06.696Z,5.00
2018-11-29T19:40:36.023Z,5.00
2018-11-29T19:43:05.969Z,4.90
2018-11-29T19:45:35.287Z,5.00
2018-11-29T19:48:04.608Z,4.90
2018-11-29T19:50:34.123Z,4.90
2018-11-29T19:53:04.435Z,4.90
2018-11-29T19:55:34.799Z,4.90
2018-11-29T19:58:04.276Z,4.90
2018-11-29T20:00:33.546Z,4.90
2018-11-29T20:03:02.897Z,4.90
2018-11-29T20:05:32.139Z,4.90
2018-11-29T20:08:01.547Z,4.90
2018-11-29T20:10:30.800Z,4.90
2018-11-29T20:13:06.666Z,4.80
2018-11-29T20:15:38.590Z,4.80
2018-11-29T20:18:09.558Z,4.80
2018-11-29T20:20:39.107Z,4.80
2018-11-29T20:23:11.068Z,4.80
2018-11-29T20:25:42.599Z,4.90
2018-11-29T20:28:12.908Z,4.90
2018-11-29T20:30:42.294Z,4.80
2018-11-29T20:33:11.794Z,4.80
2018-11-29T20:35:41.241Z,4.80
2018-11-29T20:38:10.536Z,4.70
2018-11-29T20:40:41.979Z,4.70
2018-11-29T20:43:11.296Z,4.70
2018-11-29T20:45:46.241Z,4.70
2018-11-29T20:48:18.925Z,4.70
2018-11-29T20:50:48.868Z,4.70
2018-11-29T20:53:21.438Z,4.70
2018-11-29T20:55:50.777Z,4.70
2018-11-29T20:58:20.668Z,4.70
2018-11-29T21:00:49.951Z,4.70
2018-11-29T21:03:20.496Z,4.70
2018-11-29T21:05:49.814Z,4.70
2018-11-29T21:08:19.523Z,4.70
2018-11-29T21:10:48.771Z,4.70
2018-11-29T21:13:18.033Z,4.80
2018-11-29T21:15:47.261Z,4.80
2018-11-29T21:18:16.916Z,4.80
2018-11-29T21:20:46.313Z,4.80
2018-11-29T21:23:17.142Z,4.90
2018-11-29T21:25:47.096Z,4.90
2018-11-29T21:28:16.397Z,4.90
2018-11-29T21:30:45.812Z,4.80
2018-11-29T21:33:15.247Z,4.90
2018-11-29T21:35:44.484Z,4.80
2018-11-29T21:38:21.386Z,4.80
2018-11-29T21:41:08.143Z,4.80
2018-11-29T21:43:37.707Z,4.70
2018-11-29T21:46:06.872Z,4.70
2018-11-29T21:48:36.184Z,4.80
2018-11-29T21:51:05.434Z,4.80
2018-11-29T21:53:34.578Z,4.80
2018-11-29T21:56:03.671Z,4.80
2018-11-29T21:58:32.505Z,4.70
2018-11-29T22:01:01.096Z,4.70
2018-11-29T22:03:29.738Z,4.70
2018-11-29T22:05:58.297Z,4.70
2018-11-29T22:08:26.753Z,4.70
2018-11-29T22:10:55.323Z,4.70
2018-11-29T22:13:24.196Z,4.70
2018-11-29T22:15:52.648Z,4.70
2018-11-29T22:18:22.303Z,4.60
2018-11-29T22:20:53.382Z,4.60
2018-11-29T22:23:21.918Z,4.60
2018-11-29T22:25:50.652Z,4.60
2018-11-29T22:28:19.280Z,4.60
2018-11-29T22:30:47.796Z,4.50
2018-11-29T22:33:16.292Z,4.60
2018-11-29T22:35:44.956Z,4.50
2018-11-29T22:38:13.552Z,4.60
2018-11-29T22:40:42.098Z,4.60
2018-11-29T22:43:10.680Z,4.60
2018-11-29T22:45:39.156Z,4.50
2018-11-29T22:48:07.605Z,4.50
2018-11-29T22:50:36.124Z,4.50
2018-11-29T22:53:05.095Z,4.50
2018-11-29T22:55:34.013Z,4.50
2018-11-29T22:58:02.623Z,4.50
2018-11-29T23:00:36.722Z,4.50
2018-11-29T23:03:05.432Z,4.50
2018-11-29T23:05:33.909Z,4.40
2018-11-29T23:08:02.369Z,4.40
2018-11-29T23:10:31.153Z,4.40
2018-11-29T23:12:59.712Z,4.40
2018-11-29T23:15:28.207Z,4.40
2018-11-29T23:17:56.980Z,4.40
2018-11-29T23:20:25.583Z,4.40
2018-11-29T23:22:54.053Z,4.40
2018-11-29T23:25:22.616Z,4.40
2018-11-29T23:27:51.096Z,4.40
2018-11-29T23:30:19.588Z,4.40
2018-11-29T23:32:48.244Z,4.30
2018-11-29T23:35:16.704Z,4.30
2018-11-29T23:37:45.435Z,4.30
2018-11-29T23:40:16.175Z,4.30
2018-11-29T23:42:45.107Z,4.30
2018-11-29T23:45:14.094Z,4.20
2018-11-29T23:47:42.787Z,4.30
2018-11-29T23:50:15.419Z,4.30
2018-11-29T23:52:44.163Z,4.30
2018-11-29T23:55:20.664Z,4.30
2018-11-29T23:57:49.293Z,4.20
